Time;durP1;ratioP1;P1;durP2;ratioP2;P2;SDS_P1;SDS_P2;PMS_P1;PMS_P2;Temp;Humidity;BMP_temperature;BMP_pressure;BME280_temperature;BME280_humidity;BME280_pressure;Samples;Min_cycle;Max_cycle;Signal;HPM_P1;HPM_P2
2022/09/20 00:01:47;;;;;;;2.05;0.70;;;;;;;;;;5077978;28;20838;-73
2022/09/20 00:04:14;;;;;;;3.45;1.15;;;;;;;;;;5068041;28;20056;-73
2022/09/20 00:06:41;;;;;;;7.63;1.20;;;;;;;;;;5071198;28;20049;-73
2022/09/20 00:09:08;;;;;;;5.75;1.30;;;;;;;;;;5070766;28;20384;-73
2022/09/20 00:11:36;;;;;;;10.45;1.35;;;;;;;;;;5077675;28;20866;-74
2022/09/20 00:14:05;;;;;;;11.63;1.42;;;;;;;;;;5071843;28;20057;-74
2022/09/20 00:16:33;;;;;;;6.47;0.95;;;;;;;;;;5075595;28;20064;-73
2022/09/20 00:19:05;;;;;;;14.43;1.30;;;;;;;;;;5071305;28;20075;-73
2022/09/20 00:21:35;;;;;;;3.00;1.13;;;;;;;;;;5074925;28;20049;-73
2022/09/20 00:24:02;;;;;;;8.60;1.20;;;;;;;;;;5071071;28;20049;-74
2022/09/20 00:26:30;;;;;;;1.27;1.02;;;;;;;;;;5075153;28;20111;-73
2022/09/20 00:28:57;;;;;;;11.60;1.83;;;;;;;;;;5071690;28;20053;-74
2022/09/20 00:31:24;;;;;;;6.65;1.38;;;;;;;;;;5072057;28;20099;-73
2022/09/20 00:36:41;;;;;;;5.50;1.27;;;;;;;;;;5070556;28;20482;-73
2022/09/20 00:39:10;;;;;;;3.92;1.00;;;;;;;;;;5074884;28;20102;-73
2022/09/20 00:41:37;;;;;;;2.60;0.93;;;;;;;;;;5078628;28;20055;-74
2022/09/20 00:44:23;;;;;;;2.85;0.98;;;;;;;;;;5076976;28;20740;-74
2022/09/20 00:46:50;;;;;;;10.68;1.67;;;;;;;;;;5073778;28;20049;-73
2022/09/20 00:49:20;;;;;;;4.88;1.33;;;;;;;;;;5076600;28;20053;-76
2022/09/20 00:52:00;;;;;;;6.63;1.55;;;;;;;;;;5072765;28;20049;-73
2022/09/20 00:54:28;;;;;;;2.65;1.10;;;;;;;;;;5072699;28;20052;-73
2022/09/20 00:56:56;;;;;;;8.45;0.90;;;;;;;;;;5072619;28;20067;-74
2022/09/20 00:59:24;;;;;;;7.10;0.80;;;;;;;;;;5072067;28;20073;-74
2022/09/20 01:01:53;;;;;;;2.25;0.90;;;;;;;;;;5068960;28;20049;-74
2022/09/20 01:04:22;;;;;;;2.38;0.82;;;;;;;;;;5069261;28;20111;-75
2022/09/20 01:06:51;;;;;;;4.68;0.70;;;;;;;;;;5068624;28;20055;-74
2022/09/20 01:09:19;;;;;;;7.05;1.08;;;;;;;;;;5069261;28;20061;-73
2022/09/20 01:11:46;;;;;;;6.97;1.55;;;;;;;;;;5074151;28;20049;-73
2022/09/20 01:14:17;;;;;;;2.42;0.95;;;;;;;;;;5069626;28;20127;-74
2022/09/20 01:16:44;;;;;;;12.32;1.17;;;;;;;;;;5075030;28;20053;-74
2022/09/20 01:19:38;;;;;;;5.15;0.65;;;;;;;;;;5072386;28;20396;-74
2022/09/20 01:22:09;;;;;;;3.42;0.90;;;;;;;;;;5064404;28;20112;-73
2022/09/20 01:24:37;;;;;;;4.03;0.60;;;;;;;;;;5082154;28;20045;-73
2022/09/20 01:27:13;;;;;;;11.27;1.70;;;;;;;;;;5072651;28;20041;-73
2022/09/20 01:29:52;;;;;;;2.63;1.23;;;;;;;;;;5071383;28;20049;-74
2022/09/20 01:32:21;;;;;;;6.13;1.23;;;;;;;;;;5070553;28;20048;-73
2022/09/20 01:35:00;;;;;;;5.00;1.17;;;;;;;;;;5074003;28;20045;-73
2022/09/20 01:37:32;;;;;;;4.88;1.00;;;;;;;;;;5069202;28;20049;-73
2022/09/20 01:40:05;;;;;;;1.98;1.10;;;;;;;;;;5072104;28;20052;-73
2022/09/20 01:42:33;;;;;;;4.63;1.08;;;;;;;;;;5076989;28;20044;-73
2022/09/20 01:45:05;;;;;;;5.40;1.60;;;;;;;;;;5076505;28;20045;-73
2022/09/20 01:47:54;;;;;;;5.10;1.48;;;;;;;;;;5066942;28;20103;-73
2022/09/20 01:50:21;;;;;;;12.65;1.30;;;;;;;;;;5067685;28;20565;-74
2022/09/20 01:53:05;;;;;;;1.38;0.90;;;;;;;;;;5074463;28;20045;-73
2022/09/20 01:55:43;;;;;;;9.10;1.40;;;;;;;;;;5079404;28;20088;-73
2022/09/20 01:58:19;;;;;;;4.38;1.10;;;;;;;;;;5073240;28;20514;-73
2022/09/20 02:01:02;;;;;;;5.72;1.30;;;;;;;;;;5077441;28;20056;-74
2022/09/20 02:03:46;;;;;;;3.40;1.25;;;;;;;;;;5068971;28;21238;-73
2022/09/20 02:06:18;;;;;;;2.58;0.93;;;;;;;;;;5068348;28;20053;-73
2022/09/20 02:09:04;;;;;;;2.20;1.02;;;;;;;;;;5072125;28;20509;-73
2022/09/20 02:11:42;;;;;;;8.65;1.45;;;;;;;;;;5065251;28;20514;-72
2022/09/20 02:14:12;;;;;;;6.57;1.40;;;;;;;;;;5069903;28;20061;-73
2022/09/20 02:16:44;;;;;;;7.75;1.52;;;;;;;;;;5068788;28;20064;-73
2022/09/20 02:19:14;;;;;;;2.83;1.30;;;;;;;;;;5072262;28;20165;-73
2022/09/20 02:22:01;;;;;;;6.82;1.45;;;;;;;;;;5073553;28;20131;-73
2022/09/20 02:24:35;;;;;;;8.98;1.50;;;;;;;;;;5067630;28;20049;-73
2022/09/20 02:27:02;;;;;;;9.18;1.63;;;;;;;;;;5082219;28;20049;-73
2022/09/20 02:29:41;;;;;;;8.07;1.58;;;;;;;;;;5072640;28;20150;-74
2022/09/20 02:32:23;;;;;;;4.13;1.23;;;;;;;;;;5068470;28;20053;-73
2022/09/20 02:35:10;;;;;;;8.10;1.48;;;;;;;;;;5067949;28;20052;-73
2022/09/20 02:37:56;;;;;;;4.80;1.20;;;;;;;;;;5061211;28;20533;-74
2022/09/20 02:40:42;;;;;;;6.85;1.30;;;;;;;;;;5079313;28;20098;-73
2022/09/20 02:43:18;;;;;;;9.10;1.70;;;;;;;;;;5069432;28;20782;-73
2022/09/20 02:45:54;;;;;;;3.70;1.23;;;;;;;;;;5066268;28;20176;-73
2022/09/20 02:48:24;;;;;;;6.47;1.55;;;;;;;;;;5060757;28;20056;-73
2022/09/20 02:50:55;;;;;;;4.97;1.50;;;;;;;;;;5064341;28;20478;-74
2022/09/20 02:53:28;;;;;;;4.80;1.25;;;;;;;;;;5070034;28;20825;-73
2022/09/20 02:56:01;;;;;;;3.92;1.33;;;;;;;;;;5063855;28;20049;-73
2022/09/20 02:58:37;;;;;;;4.03;1.30;;;;;;;;;;5073665;28;20057;-73
2022/09/20 03:01:40;;;;;;;3.13;1.00;;;;;;;;;;5067894;28;20059;-74
2022/09/20 03:04:26;;;;;;;2.25;1.10;;;;;;;;;;4986533;28;20054;-73
2022/09/20 03:06:53;;;;;;;4.28;1.27;;;;;;;;;;4958426;28;20143;-73
2022/09/20 03:09:30;;;;;;;5.32;1.60;;;;;;;;;;4985672;28;20050;-73
2022/09/20 03:12:16;;;;;;;6.35;1.50;;;;;;;;;;4979722;28;20853;-74
2022/09/20 03:14:58;;;;;;;11.73;1.70;;;;;;;;;;4985843;28;20059;-73
2022/09/20 03:17:48;;;;;;;6.07;1.63;;;;;;;;;;4983078;28;20923;-74
2022/09/20 03:20:30;;;;;;;1.40;1.17;;;;;;;;;;4972871;28;20110;-74
2022/09/20 03:23:00;;;;;;;6.07;1.92;;;;;;;;;;4979282;28;20058;-73
2022/09/20 03:25:33;;;;;;;7.65;1.70;;;;;;;;;;4985390;28;20873;-74
2022/09/20 03:28:08;;;;;;;1.27;0.95;;;;;;;;;;4986042;28;20055;-73
2022/09/20 03:30:54;;;;;;;2.20;1.38;;;;;;;;;;4988759;28;20055;-73
2022/09/20 03:33:24;;;;;;;7.38;1.65;;;;;;;;;;4984834;28;20063;-73
2022/09/20 03:36:01;;;;;;;3.30;1.27;;;;;;;;;;4985249;28;20051;-74
2022/09/20 03:38:51;;;;;;;9.65;1.50;;;;;;;;;;5035053;28;20053;-73
2022/09/20 03:41:44;;;;;;;5.45;1.50;;;;;;;;;;4988185;28;20133;-73
2022/09/20 03:44:24;;;;;;;2.40;1.33;;;;;;;;;;4973958;28;20051;-73
2022/09/20 03:46:56;;;;;;;1.98;1.15;;;;;;;;;;4989123;28;20053;-73
2022/09/20 03:49:45;;;;;;;6.22;1.65;;;;;;;;;;4989443;28;20951;-74
2022/09/20 03:52:51;;;;;;;13.30;1.98;;;;;;;;;;4989019;28;20057;-73
2022/09/20 03:55:24;;;;;;;2.72;1.33;;;;;;;;;;4968189;28;20485;-73
2022/09/20 03:58:02;;;;;;;7.68;1.95;;;;;;;;;;4969917;28;20059;-73
2022/09/20 04:00:34;;;;;;;5.60;1.40;;;;;;;;;;4963117;28;20111;-74
2022/09/20 04:03:13;;;;;;;2.65;1.50;;;;;;;;;;4969200;28;20544;-73
2022/09/20 04:05:52;;;;;;;8.48;1.42;;;;;;;;;;4968799;28;20131;-73
2022/09/20 04:08:31;;;;;;;8.43;1.70;;;;;;;;;;4968368;28;20573;-74
2022/09/20 04:11:11;;;;;;;6.65;2.00;;;;;;;;;;4968634;28;20062;-73
2022/09/20 04:13:38;;;;;;;;;;;;;;;;;;4968275;28;20948;-73
2022/09/20 04:16:29;;;;;;;2.10;1.40;;;;;;;;;;4968728;28;44794;-73
2022/09/20 04:19:15;;;;;;;8.82;1.67;;;;;;;;;;5024442;28;20049;-73
2022/09/20 04:21:45;;;;;;;8.45;2.30;;;;;;;;;;5048252;28;20050;-73
2022/09/20 04:24:15;;;;;;;4.72;1.90;;;;;;;;;;5046147;28;20049;-73
2022/09/20 04:26:48;;;;;;;5.93;1.85;;;;;;;;;;5062621;28;20538;-73
2022/09/20 04:29:27;;;;;;;8.10;1.90;;;;;;;;;;5078442;28;20517;-74
2022/09/20 04:32:02;;;;;;;8.15;1.58;;;;;;;;;;5070297;28;20057;-73
2022/09/20 04:37:24;;;;;;;4.57;2.00;;;;;;;;;;5074079;28;20106;-73
2022/09/20 04:40:07;;;;;;;5.32;1.88;;;;;;;;;;5065621;28;20049;-74
2022/09/20 04:42:57;;;;;;;1.80;1.53;;;;;;;;;;5080802;28;20068;-73
2022/09/20 04:45:37;;;;;;;4.90;1.63;;;;;;;;;;5006898;28;20058;-73
2022/09/20 04:48:13;;;;;;;8.13;1.70;;;;;;;;;;5008309;28;20113;-73
2022/09/20 04:50:58;;;;;;;5.00;1.80;;;;;;;;;;5013463;28;20141;-73
2022/09/20 04:53:25;;;;;;;7.82;1.85;;;;;;;;;;5013623;28;20058;-73
2022/09/20 04:56:13;;;;;;;4.55;2.08;;;;;;;;;;4991147;28;20847;-73
2022/09/20 04:58:56;;;;;;;5.68;1.77;;;;;;;;;;5018883;28;20065;-73
2022/09/20 05:01:23;;;;;;;4.00;1.75;;;;;;;;;;5007408;28;20109;-73
2022/09/20 05:04:21;;;;;;;3.70;1.55;;;;;;;;;;5009382;28;20089;-73
2022/09/20 05:07:03;;;;;;;5.55;1.55;;;;;;;;;;5012185;28;20050;-73
2022/09/20 05:09:39;;;;;;;4.22;1.20;;;;;;;;;;5016867;28;20050;-73
2022/09/20 05:12:26;;;;;;;2.35;1.45;;;;;;;;;;5013636;28;20050;-73
2022/09/20 05:15:10;;;;;;;10.60;2.10;;;;;;;;;;5004946;28;20140;-73
2022/09/20 05:17:43;;;;;;;3.45;1.58;;;;;;;;;;5007987;28;20050;-74
2022/09/20 05:20:29;;;;;;;6.20;1.80;;;;;;;;;;5008502;28;20073;-73
2022/09/20 05:22:56;;;;;;;3.47;1.67;;;;;;;;;;5058778;28;20057;-73
2022/09/20 05:25:43;;;;;;;8.68;1.85;;;;;;;;;;5071260;28;20896;-73
2022/09/20 05:28:21;;;;;;;2.60;1.48;;;;;;;;;;5075804;28;20048;-73
2022/09/20 05:30:59;;;;;;;9.93;1.67;;;;;;;;;;5076089;28;20053;-74
2022/09/20 05:33:35;;;;;;;11.95;1.70;;;;;;;;;;5071830;28;20111;-73
2022/09/20 05:36:02;;;;;;;2.50;1.50;;;;;;;;;;5069335;28;20049;-73
2022/09/20 05:38:47;;;;;;;5.50;1.58;;;;;;;;;;5067285;28;20061;-73
2022/09/20 05:41:36;;;;;;;3.60;1.60;;;;;;;;;;5067754;28;20127;-74
2022/09/20 05:44:22;;;;;;;2.08;1.38;;;;;;;;;;5071663;28;20107;-74
2022/09/20 05:46:49;;;;;;;3.83;1.83;;;;;;;;;;5069239;28;20078;-74
2022/09/20 05:49:35;;;;;;;7.50;1.88;;;;;;;;;;5077847;28;20187;-73
2022/09/20 05:52:11;;;;;;;5.60;1.45;;;;;;;;;;5030660;28;20049;-73
2022/09/20 05:55:00;;;;;;;8.23;2.30;;;;;;;;;;5030120;28;20064;-74
2022/09/20 05:57:33;;;;;;;3.60;1.90;;;;;;;;;;5026073;28;20104;-74
2022/09/20 06:00:02;;;;;;;6.78;1.70;;;;;;;;;;5024324;28;20057;-73
2022/09/20 06:02:46;;;;;;;3.20;1.73;;;;;;;;;;5029407;28;20054;-74
2022/09/20 06:05:26;;;;;;;4.43;2.25;;;;;;;;;;5028291;28;20057;-73
2022/09/20 06:08:01;;;;;;;9.57;2.22;;;;;;;;;;5028446;28;20054;-74
2022/09/20 06:10:33;;;;;;;8.45;1.63;;;;;;;;;;5029669;28;20512;-73
2022/09/20 06:13:08;;;;;;;5.32;2.00;;;;;;;;;;5025942;28;20054;-74
2022/09/20 06:15:52;;;;;;;6.35;2.28;;;;;;;;;;5025697;28;20050;-73
2022/09/20 06:18:25;;;;;;;2.78;1.52;;;;;;;;;;5028429;28;20049;-74
2022/09/20 06:21:05;;;;;;;8.02;2.10;;;;;;;;;;5024051;28;20056;-74
2022/09/20 06:23:34;;;;;;;5.00;2.13;;;;;;;;;;5036905;28;20141;-73
2022/09/20 06:26:06;;;;;;;4.28;2.53;;;;;;;;;;5036156;28;20045;-75
2022/09/20 06:28:35;;;;;;;8.20;2.10;;;;;;;;;;5036077;28;20060;-73
2022/09/20 06:31:10;;;;;;;5.57;2.05;;;;;;;;;;5032426;28;20123;-74
2022/09/20 06:33:43;;;;;;;5.88;2.10;;;;;;;;;;5026184;28;20058;-73
2022/09/20 06:41:48;;;;;;;3.90;2.08;;;;;;;;;;5028840;28;20807;-74
2022/09/20 06:44:15;;;;;;;5.95;3.50;;;;;;;;;;5032044;28;20134;-74
2022/09/20 06:46:43;;;;;;;7.35;3.00;;;;;;;;;;5028462;28;20504;-73
2022/09/20 06:49:11;;;;;;;5.88;2.50;;;;;;;;;;5034452;28;20093;-74
2022/09/20 06:51:39;;;;;;;6.35;2.80;;;;;;;;;;5071372;28;20592;-73
2022/09/20 06:54:10;;;;;;;9.48;2.90;;;;;;;;;;5071992;28;20844;-74
2022/09/20 06:56:37;;;;;;;3.05;2.20;;;;;;;;;;5072011;28;20110;-73
2022/09/20 06:59:07;;;;;;;10.30;2.50;;;;;;;;;;5068214;28;20091;-73
2022/09/20 07:01:34;;;;;;;10.23;2.10;;;;;;;;;;5073365;28;20589;-73
2022/09/20 07:04:02;;;;;;;9.60;2.10;;;;;;;;;;5075921;28;20052;-74
2022/09/20 07:06:29;;;;;;;6.70;2.38;;;;;;;;;;5080085;28;20048;-73
2022/09/20 07:08:56;;;;;;;9.32;2.58;;;;;;;;;;5081932;28;20045;-74
2022/09/20 07:11:23;;;;;;;8.15;2.60;;;;;;;;;;5071005;28;20098;-73
2022/09/20 07:13:52;;;;;;;6.35;2.53;;;;;;;;;;5071961;28;20049;-73
2022/09/20 07:16:20;;;;;;;8.82;2.60;;;;;;;;;;5069152;28;20880;-73
2022/09/20 07:18:48;;;;;;;5.88;2.00;;;;;;;;;;5065913;28;20861;-74
2022/09/20 07:21:16;;;;;;;11.18;2.65;;;;;;;;;;5056040;28;20776;-74
2022/09/20 07:23:50;;;;;;;5.10;1.98;;;;;;;;;;5066748;28;20082;-73
2022/09/20 07:26:25;;;;;;;5.70;2.20;;;;;;;;;;5070675;28;20056;-74
2022/09/20 07:28:53;;;;;;;9.52;2.15;;;;;;;;;;5072517;28;20061;-73
2022/09/20 07:31:21;;;;;;;6.22;2.28;;;;;;;;;;5076214;28;20094;-73
2022/09/20 07:33:49;;;;;;;6.38;2.15;;;;;;;;;;5074005;28;20053;-74
2022/09/20 07:36:16;;;;;;;6.18;2.30;;;;;;;;;;5062128;28;20056;-74
2022/09/20 07:38:47;;;;;;;4.50;1.65;;;;;;;;;;5069649;28;20060;-74
2022/09/20 07:41:15;;;;;;;5.72;2.10;;;;;;;;;;5068078;28;20053;-74
2022/09/20 07:43:42;;;;;;;9.60;2.00;;;;;;;;;;5075960;28;20049;-73
2022/09/20 07:46:12;;;;;;;5.78;2.00;;;;;;;;;;5075014;28;20079;-74
2022/09/20 07:48:40;;;;;;;6.55;2.00;;;;;;;;;;5066379;28;20048;-75
2022/09/20 07:51:09;;;;;;;9.85;2.00;;;;;;;;;;5091997;28;20053;-74
2022/09/20 07:53:36;;;;;;;10.73;1.98;;;;;;;;;;5075276;28;20049;-73
2022/09/20 07:56:05;;;;;;;4.20;1.33;;;;;;;;;;5064970;28;20056;-74
2022/09/20 07:58:33;;;;;;;11.07;1.90;;;;;;;;;;5068453;28;20088;-74
2022/09/20 08:01:01;;;;;;;5.07;1.55;;;;;;;;;;5074931;28;20045;-74
2022/09/20 08:03:30;;;;;;;4.32;1.35;;;;;;;;;;5069032;28;20122;-74
2022/09/20 08:06:01;;;;;;;3.67;0.95;;;;;;;;;;5062941;28;20959;-74
2022/09/20 08:08:31;;;;;;;4.00;1.00;;;;;;;;;;5071000;28;20049;-74
2022/09/20 08:11:24;;;;;;;5.45;1.27;;;;;;;;;;5067883;28;20107;-74
2022/09/20 08:13:55;;;;;;;5.35;0.85;;;;;;;;;;5064009;28;20061;-74
2022/09/20 08:16:36;;;;;;;5.07;1.00;;;;;;;;;;5070981;28;20057;-73
2022/09/20 08:19:04;;;;;;;5.00;0.77;;;;;;;;;;5065315;28;20049;-75
2022/09/20 08:21:32;;;;;;;3.33;0.95;;;;;;;;;;5067346;28;20126;-74
2022/09/20 08:23:59;;;;;;;4.35;1.00;;;;;;;;;;5068417;28;20048;-74
2022/09/20 08:26:28;;;;;;;5.28;0.80;;;;;;;;;;5074018;28;20053;-74
2022/09/20 08:28:56;;;;;;;1.98;0.90;;;;;;;;;;5075688;28;20053;-74
2022/09/20 08:31:34;;;;;;;1.80;0.73;;;;;;;;;;5079289;28;20049;-75
2022/09/20 08:34:02;;;;;;;10.13;1.05;;;;;;;;;;5078627;28;20098;-74
2022/09/20 08:36:31;;;;;;;5.07;0.95;;;;;;;;;;5077614;28;20053;-75
2022/09/20 08:39:05;;;;;;;0.73;0.67;;;;;;;;;;5069907;28;20056;-74
2022/09/20 08:41:55;;;;;;;1.60;0.70;;;;;;;;;;5072857;28;20059;-74
2022/09/20 08:44:26;;;;;;;3.85;1.15;;;;;;;;;;5072287;28;20940;-73
2022/09/20 08:47:01;;;;;;;5.53;1.13;;;;;;;;;;5073771;28;20474;-74
2022/09/20 08:49:29;;;;;;;2.28;0.80;;;;;;;;;;5071622;28;20921;-75
2022/09/20 08:51:57;;;;;;;2.33;0.73;;;;;;;;;;5070733;28;20045;-74
2022/09/20 08:54:26;;;;;;;0.52;0.52;;;;;;;;;;5069325;28;20053;-73
2022/09/20 08:57:04;;;;;;;6.35;0.93;;;;;;;;;;5079748;28;20053;-74
2022/09/20 08:59:31;;;;;;;5.47;1.25;;;;;;;;;;5079174;28;20564;-74
2022/09/20 09:01:58;;;;;;;5.03;1.00;;;;;;;;;;5066703;28;20053;-73
2022/09/20 09:04:31;;;;;;;6.22;1.35;;;;;;;;;;5074748;28;20123;-74
2022/09/20 09:06:58;;;;;;;8.98;1.30;;;;;;;;;;5066001;28;20095;-73
2022/09/20 09:09:26;;;;;;;13.60;1.77;;;;;;;;;;5063354;28;20104;-73
2022/09/20 09:11:55;;;;;;;5.18;0.98;;;;;;;;;;5064801;28;20099;-74
2022/09/20 09:14:48;;;;;;;6.03;0.80;;;;;;;;;;5067985;28;20053;-74
2022/09/20 09:17:17;;;;;;;5.32;0.95;;;;;;;;;;5060008;28;20057;-73
2022/09/20 09:19:49;;;;;;;10.02;1.38;;;;;;;;;;5064138;28;20056;-74
2022/09/20 09:22:36;;;;;;;1.55;0.80;;;;;;;;;;5073010;28;20873;-74
2022/09/20 09:25:28;;;;;;;3.03;0.85;;;;;;;;;;5058868;28;20053;-74
2022/09/20 09:28:04;;;;;;;0.52;0.50;;;;;;;;;;5061607;28;20702;-73
2022/09/20 09:30:42;;;;;;;3.42;0.80;;;;;;;;;;5057412;28;20108;-74
2022/09/20 09:33:29;;;;;;;4.32;1.08;;;;;;;;;;5064460;28;20049;-75
2022/09/20 09:35:57;;;;;;;1.85;0.60;;;;;;;;;;5065854;28;20052;-73
2022/09/20 09:38:29;;;;;;;3.50;0.90;;;;;;;;;;5069225;28;20495;-73
2022/09/20 09:40:58;;;;;;;7.10;1.00;;;;;;;;;;5069506;28;22294;-74
2022/09/20 09:43:27;;;;;;;3.95;1.00;;;;;;;;;;5064796;28;20676;-74
2022/09/20 09:46:14;;;;;;;4.40;0.85;;;;;;;;;;5070684;28;20057;-74
2022/09/20 09:48:41;;;;;;;3.53;1.05;;;;;;;;;;5070876;28;20052;-74
2022/09/20 09:51:19;;;;;;;1.90;0.57;;;;;;;;;;5070759;28;20445;-73
2022/09/20 09:53:50;;;;;;;2.15;0.70;;;;;;;;;;5072816;28;20104;-73
2022/09/20 09:56:20;;;;;;;5.18;1.10;;;;;;;;;;5074045;28;20056;-74
2022/09/20 09:58:47;;;;;;;3.88;0.70;;;;;;;;;;5069012;28;20111;-75
2022/09/20 10:01:30;;;;;;;1.15;0.57;;;;;;;;;;5070040;28;20049;-75
2022/09/20 10:04:20;;;;;;;5.65;1.13;;;;;;;;;;5074733;28;20044;-74
2022/09/20 10:06:47;;;;;;;3.72;0.73;;;;;;;;;;5034579;28;21323;-74
2022/09/20 10:09:28;;;;;;;9.20;0.98;;;;;;;;;;5065112;28;20423;-75
2022/09/20 10:12:19;;;;;;;5.75;1.05;;;;;;;;;;5062313;28;20083;-74
2022/09/20 10:15:06;;;;;;;2.83;0.60;;;;;;;;;;5062565;28;20108;-75
2022/09/20 10:17:52;;;;;;;5.35;1.30;;;;;;;;;;5077909;28;20053;-75
2022/09/20 10:20:38;;;;;;;3.63;0.70;;;;;;;;;;5067625;28;20057;-75
2022/09/20 10:23:13;;;;;;;1.50;0.52;;;;;;;;;;5073558;28;20440;-75
2022/09/20 10:26:07;;;;;;;2.88;0.90;;;;;;;;;;5074643;28;20151;-74
2022/09/20 10:28:55;;;;;;;2.25;0.80;;;;;;;;;;5072175;28;20059;-75
2022/09/20 10:31:38;;;;;;;2.85;0.65;;;;;;;;;;5068754;28;20756;-74
2022/09/20 10:34:09;;;;;;;5.80;0.82;;;;;;;;;;5080046;28;20053;-73
2022/09/20 10:36:39;;;;;;;4.35;0.68;;;;;;;;;;5074168;28;20042;-73
2022/09/20 10:39:25;;;;;;;0.95;0.40;;;;;;;;;;5067162;28;20064;-73
2022/09/20 10:45:17;;;;;;;2.88;0.70;;;;;;;;;;5069942;28;20053;-73
2022/09/20 10:48:17;;;;;;;2.72;0.70;;;;;;;;;;4986631;28;20090;-72
2022/09/20 10:50:44;;;;;;;4.22;0.85;;;;;;;;;;4987074;28;20063;-73
2022/09/20 10:53:26;;;;;;;3.28;0.90;;;;;;;;;;4985271;28;20130;-73
2022/09/20 10:55:58;;;;;;;8.90;1.05;;;;;;;;;;4970592;28;20105;-73
2022/09/20 10:58:31;;;;;;;2.20;1.17;;;;;;;;;;4986664;28;20058;-73
2022/09/20 11:00:59;;;;;;;5.53;0.52;;;;;;;;;;4986204;28;20117;-73
2022/09/20 11:03:29;;;;;;;1.30;0.65;;;;;;;;;;4985487;28;20051;-73
2022/09/20 11:05:59;;;;;;;1.08;0.50;;;;;;;;;;4988099;28;20043;-72
2022/09/20 11:08:29;;;;;;;1.40;0.50;;;;;;;;;;4987349;28;20824;-72
2022/09/20 11:11:19;;;;;;;1.17;0.70;;;;;;;;;;4975372;28;20058;-74
2022/09/20 11:13:52;;;;;;;4.70;1.02;;;;;;;;;;4980273;28;20101;-72
2022/09/20 11:16:21;;;;;;;;;;;;;;;;;;4986938;28;20130;-73
2022/09/20 11:18:54;;;;;;;3.08;0.90;;;;;;;;;;4983604;28;45895;-73
2022/09/20 11:21:27;;;;;;;5.95;0.90;;;;;;;;;;4988956;28;20138;-72
2022/09/20 11:24:02;;;;;;;5.05;1.10;;;;;;;;;;4997813;28;20098;-72
2022/09/20 11:26:32;;;;;;;1.70;0.77;;;;;;;;;;5073000;28;20130;-73
2022/09/20 11:29:18;;;;;;;3.00;0.98;;;;;;;;;;5068359;28;20049;-72
2022/09/20 11:31:47;;;;;;;4.57;0.63;;;;;;;;;;5070592;28;20045;-73
2022/09/20 11:34:33;;;;;;;5.55;0.90;;;;;;;;;;5078215;28;20048;-72
2022/09/20 11:37:02;;;;;;;3.22;0.80;;;;;;;;;;5070029;28;20144;-73
2022/09/20 11:39:50;;;;;;;4.32;1.00;;;;;;;;;;5079308;28;20048;-72
2022/09/20 11:42:19;;;;;;;2.70;1.00;;;;;;;;;;5064955;28;21024;-72
2022/09/20 11:44:46;;;;;;;9.13;1.75;;;;;;;;;;5067002;28;20091;-73
2022/09/20 11:47:19;;;;;;;4.07;1.00;;;;;;;;;;5074985;28;20128;-73
2022/09/20 11:50:28;;;;;;;4.47;1.17;;;;;;;;;;5075102;28;21153;-72
2022/09/20 11:52:58;;;;;;;3.58;0.80;;;;;;;;;;5078055;28;20056;-73
2022/09/20 11:55:41;;;;;;;3.78;0.80;;;;;;;;;;5073065;28;20140;-73
2022/09/20 11:58:08;;;;;;;;;;;;;;;;;;5069820;28;20056;-73
2022/09/20 12:00:38;;;;;;;7.78;1.00;;;;;;;;;;5070397;28;45011;-73
2022/09/20 12:03:07;;;;;;;6.20;1.05;;;;;;;;;;5071958;28;20164;-73
2022/09/20 12:05:40;;;;;;;4.95;0.80;;;;;;;;;;5073709;28;20076;-73
2022/09/20 12:08:17;;;;;;;6.05;1.20;;;;;;;;;;5080363;28;20034;-73
2022/09/20 12:10:53;;;;;;;3.92;0.85;;;;;;;;;;5064767;28;20057;-73
2022/09/20 12:13:23;;;;;;;6.53;0.85;;;;;;;;;;5067404;28;20119;-73
2022/09/20 12:16:03;;;;;;;1.95;0.80;;;;;;;;;;5074039;28;20052;-73
2022/09/20 12:18:51;;;;;;;7.88;0.98;;;;;;;;;;5075163;28;20079;-74
2022/09/20 12:21:19;;;;;;;3.03;0.50;;;;;;;;;;5065379;28;20473;-73
2022/09/20 12:24:00;;;;;;;2.90;0.93;;;;;;;;;;5072137;28;20098;-73
2022/09/20 12:26:27;;;;;;;2.58;0.68;;;;;;;;;;5074071;28;20064;-74
2022/09/20 12:28:57;;;;;;;4.63;0.82;;;;;;;;;;5077872;28;20057;-72
2022/09/20 12:31:25;;;;;;;7.43;1.00;;;;;;;;;;5082808;28;20095;-73
2022/09/20 12:33:58;;;;;;;5.47;0.75;;;;;;;;;;5080288;28;20179;-74
2022/09/20 12:36:26;;;;;;;5.45;0.82;;;;;;;;;;5078565;28;20087;-73
2022/09/20 12:39:02;;;;;;;1.98;0.60;;;;;;;;;;5078413;28;20045;-73
2022/09/20 12:41:47;;;;;;;3.65;0.50;;;;;;;;;;5078388;28;20136;-74
2022/09/20 12:44:36;;;;;;;2.40;0.60;;;;;;;;;;5072000;28;20092;-74
2022/09/20 12:47:15;;;;;;;7.82;1.13;;;;;;;;;;5079188;28;20048;-74
2022/09/20 12:52:54;;;;;;;2.30;0.80;;;;;;;;;;5069557;28;20095;-73
2022/09/20 12:55:28;;;;;;;5.53;0.93;;;;;;;;;;5075733;28;20112;-74
2022/09/20 12:58:04;;;;;;;4.68;1.20;;;;;;;;;;5080721;28;20056;-73
2022/09/20 13:00:43;;;;;;;2.70;0.90;;;;;;;;;;5072553;28;20049;-74
2022/09/20 13:03:11;;;;;;;1.88;0.73;;;;;;;;;;5071816;28;20033;-73
2022/09/20 13:05:40;;;;;;;1.92;0.88;;;;;;;;;;5069516;28;20056;-74
2022/09/20 13:08:24;;;;;;;3.58;1.08;;;;;;;;;;5066989;28;20049;-74
2022/09/20 13:11:13;;;;;;;4.72;0.80;;;;;;;;;;5075826;28;20044;-73
2022/09/20 13:13:50;;;;;;;7.50;1.20;;;;;;;;;;5069653;28;20064;-73
2022/09/20 13:16:23;;;;;;;5.47;1.02;;;;;;;;;;5070744;28;20041;-73
2022/09/20 13:18:57;;;;;;;6.03;0.98;;;;;;;;;;5075752;28;20154;-73
2022/09/20 13:21:24;;;;;;;;;;;;;;;;;;5072421;28;20049;-73
2022/09/20 13:23:54;;;;;;;6.43;0.82;;;;;;;;;;5074410;28;44692;-74
2022/09/20 13:26:33;;;;;;;3.95;0.47;;;;;;;;;;5081943;28;20075;-74
2022/09/20 13:29:02;;;;;;;3.67;0.90;;;;;;;;;;5072559;28;20045;-73
2022/09/20 13:31:31;;;;;;;4.70;0.90;;;;;;;;;;5077271;28;21757;-74
2022/09/20 13:34:17;;;;;;;2.22;0.98;;;;;;;;;;5080780;28;20103;-74
2022/09/20 13:36:45;;;;;;;4.97;1.10;;;;;;;;;;5080001;28;20636;-74
2022/09/20 13:39:34;;;;;;;3.97;0.82;;;;;;;;;;5084969;28;20068;-74
2022/09/20 13:42:05;;;;;;;2.67;0.93;;;;;;;;;;5073647;28;20095;-73
2022/09/20 13:44:33;;;;;;;9.77;1.02;;;;;;;;;;5077782;28;20143;-73
2022/09/20 13:47:00;;;;;;;5.63;1.05;;;;;;;;;;5088471;28;21440;-73
2022/09/20 13:49:31;;;;;;;5.15;1.25;;;;;;;;;;5078188;28;20071;-74
2022/09/20 13:51:59;;;;;;;7.10;0.82;;;;;;;;;;5072521;28;20041;-74
2022/09/20 13:54:27;;;;;;;4.45;0.93;;;;;;;;;;5081848;28;20056;-73
2022/09/20 13:56:59;;;;;;;2.35;0.70;;;;;;;;;;5071748;28;20045;-73
2022/09/20 13:59:32;;;;;;;5.25;1.02;;;;;;;;;;5073858;28;20060;-74
2022/09/20 14:01:59;;;;;;;9.87;1.47;;;;;;;;;;5072955;28;20057;-73
2022/09/20 14:04:28;;;;;;;3.55;0.65;;;;;;;;;;5080877;28;20052;-73
2022/09/20 14:06:56;;;;;;;7.15;1.58;;;;;;;;;;5087836;28;20060;-74
2022/09/20 14:09:28;;;;;;;7.38;1.20;;;;;;;;;;5082205;28;20102;-73
2022/09/20 14:11:56;;;;;;;5.13;1.20;;;;;;;;;;5080007;28;20049;-73
2022/09/20 14:14:23;;;;;;;5.90;0.60;;;;;;;;;;5075847;28;20053;-73
2022/09/20 14:16:51;;;;;;;2.90;0.95;;;;;;;;;;5078827;28;20122;-73
2022/09/20 14:19:20;;;;;;;9.82;1.42;;;;;;;;;;5073308;28;20040;-74
2022/09/20 14:21:48;;;;;;;3.80;1.00;;;;;;;;;;5080236;28;20056;-73
2022/09/20 14:24:24;;;;;;;4.15;1.23;;;;;;;;;;5080973;28;20032;-74
2022/09/20 14:27:01;;;;;;;3.28;0.77;;;;;;;;;;5075684;28;20099;-74
2022/09/20 14:29:34;;;;;;;4.10;1.10;;;;;;;;;;5079098;28;20052;-73
2022/09/20 14:32:16;;;;;;;5.25;0.90;;;;;;;;;;5078603;28;20949;-73
2022/09/20 14:34:45;;;;;;;5.90;1.02;;;;;;;;;;5071448;28;20059;-73
2022/09/20 14:37:24;;;;;;;3.38;1.00;;;;;;;;;;5070336;28;20072;-73
2022/09/20 14:39:55;;;;;;;2.35;0.70;;;;;;;;;;5068034;28;20049;-74
2022/09/20 14:42:41;;;;;;;5.97;1.33;;;;;;;;;;5072221;28;20041;-73
2022/09/20 14:45:29;;;;;;;9.60;1.40;;;;;;;;;;5074701;28;20049;-74
2022/09/20 14:47:58;;;;;;;7.57;1.45;;;;;;;;;;5068273;28;20118;-74
2022/09/20 14:50:28;;;;;;;5.07;1.40;;;;;;;;;;5076275;28;20049;-74
2022/09/20 14:52:59;;;;;;;4.55;1.00;;;;;;;;;;5074744;28;20053;-73
2022/09/20 14:55:27;;;;;;;8.32;1.15;;;;;;;;;;5067561;28;20053;-73
2022/09/20 14:58:11;;;;;;;6.95;1.02;;;;;;;;;;5071468;28;20041;-73
2022/09/20 15:00:38;;;;;;;;;;;;;;;;;;5071537;28;20060;-74
2022/09/20 15:03:07;;;;;;;5.55;1.15;;;;;;;;;;5068181;28;43410;-73
2022/09/20 15:05:34;;;;;;;4.70;1.00;;;;;;;;;;5070718;28;20032;-74
2022/09/20 15:08:02;;;;;;;5.60;1.08;;;;;;;;;;5068408;28;20056;-73
2022/09/20 15:10:30;;;;;;;2.78;0.80;;;;;;;;;;5069540;28;20140;-73
2022/09/20 15:12:57;;;;;;;3.25;0.93;;;;;;;;;;5068749;28;20056;-73
2022/09/20 15:15:24;;;;;;;9.52;0.90;;;;;;;;;;5070161;28;20064;-73
2022/09/20 15:17:51;;;;;;;7.10;1.17;;;;;;;;;;5066311;28;20069;-74
2022/09/20 15:20:20;;;;;;;1.80;0.80;;;;;;;;;;5074498;28;20852;-74
2022/09/20 15:22:50;;;;;;;6.60;1.10;;;;;;;;;;5070039;28;20037;-73
2022/09/20 15:25:20;;;;;;;8.13;0.80;;;;;;;;;;5072269;28;20024;-74
2022/09/20 15:27:51;;;;;;;3.10;0.70;;;;;;;;;;5068962;28;20053;-73
2022/09/20 15:30:19;;;;;;;3.15;0.90;;;;;;;;;;5072874;28;20100;-73
2022/09/20 15:32:46;;;;;;;1.30;0.65;;;;;;;;;;5079419;28;20049;-73
2022/09/20 15:35:14;;;;;;;5.78;0.80;;;;;;;;;;5071019;28;20087;-74
2022/09/20 15:37:41;;;;;;;4.05;1.08;;;;;;;;;;5067968;28;20049;-74
2022/09/20 15:40:08;;;;;;;5.85;1.05;;;;;;;;;;5069755;28;20045;-74
2022/09/20 15:42:36;;;;;;;3.17;0.70;;;;;;;;;;5070534;28;20979;-74
2022/09/20 15:45:08;;;;;;;2.83;0.90;;;;;;;;;;5086167;28;20041;-73